sensor_id;sensor_type;location;lat;lon;timestamp;pressure;altitude;pressure_sealevel;temperature
75811;BMP280;64449;50.016;19.954;2023-05-15T00:01:16;98177.52;;;14.94
75811;BMP280;64449;50.016;19.954;2023-05-15T00:03:42;98178.23;;;14.91
75811;BMP280;64449;50.016;19.954;2023-05-15T00:06:07;98175.95;;;14.86
75811;BMP280;64449;50.016;19.954;2023-05-15T00:08:33;98176.01;;;14.83
75811;BMP280;64449;50.016;19.954;2023-05-15T00:10:58;98175.02;;;14.81
75811;BMP280;64449;50.016;19.954;2023-05-15T00:13:24;98174.83;;;14.80
75811;BMP280;64449;50.016;19.954;2023-05-15T00:15:49;98170.98;;;14.78
75811;BMP280;64449;50.016;19.954;2023-05-15T00:18:15;98170.71;;;14.78
75811;BMP280;64449;50.016;19.954;2023-05-15T00:20:40;98166.54;;;14.79
75811;BMP280;64449;50.016;19.954;2023-05-15T00:23:06;98161.64;;;14.79
75811;BMP280;64449;50.016;19.954;2023-05-15T00:25:31;98159.50;;;14.80
75811;BMP280;64449;50.016;19.954;2023-05-15T00:27:57;98157.85;;;14.79
75811;BMP280;64449;50.016;19.954;2023-05-15T00:30:22;98151.02;;;14.78
75811;BMP280;64449;50.016;19.954;2023-05-15T00:32:47;98148.05;;;14.77
75811;BMP280;64449;50.016;19.954;2023-05-15T00:35:13;98144.20;;;14.77
75811;BMP280;64449;50.016;19.954;2023-05-15T00:37:38;98138.45;;;14.77
75811;BMP280;64449;50.016;19.954;2023-05-15T00:40:04;98134.66;;;14.77
75811;BMP280;64449;50.016;19.954;2023-05-15T00:42:31;98131.66;;;14.77
75811;BMP280;64449;50.016;19.954;2023-05-15T00:44:57;98131.85;;;14.76
75811;BMP280;64449;50.016;19.954;2023-05-15T00:47:25;98130.21;;;14.72
75811;BMP280;64449;50.016;19.954;2023-05-15T00:49:51;98127.90;;;14.69
75811;BMP280;64449;50.016;19.954;2023-05-15T00:52:17;98122.23;;;14.66
75811;BMP280;64449;50.016;19.954;2023-05-15T00:54:43;98112.41;;;14.64
75811;BMP280;64449;50.016;19.954;2023-05-15T00:57:09;98107.33;;;14.63
75811;BMP280;64449;50.016;19.954;2023-05-15T00:59:38;98109.73;;;14.61
75811;BMP280;64449;50.016;19.954;2023-05-15T01:02:03;98108.05;;;14.59
75811;BMP280;64449;50.016;19.954;2023-05-15T01:04:29;98103.54;;;14.57
75811;BMP280;64449;50.016;19.954;2023-05-15T01:06:55;98098.77;;;14.57
75811;BMP280;64449;50.016;19.954;2023-05-15T01:09:24;98091.52;;;14.57
75811;BMP280;64449;50.016;19.954;2023-05-15T01:11:53;98093.96;;;14.56
75811;BMP280;64449;50.016;19.954;2023-05-15T01:14:18;98090.14;;;14.53
75811;BMP280;64449;50.016;19.954;2023-05-15T01:16:44;98089.25;;;14.53
75811;BMP280;64449;50.016;19.954;2023-05-15T01:19:10;98094.70;;;14.51
75811;BMP280;64449;50.016;19.954;2023-05-15T01:29:44;98098.21;;;14.50
75811;BMP280;64449;50.016;19.954;2023-05-15T01:32:25;98086.88;;;14.50
75811;BMP280;64449;50.016;19.954;2023-05-15T01:37:29;98091.04;;;14.51
75811;BMP280;64449;50.016;19.954;2023-05-15T01:39:59;98094.43;;;14.50
75811;BMP280;64449;50.016;19.954;2023-05-15T01:42:33;98093.66;;;14.50
75811;BMP280;64449;50.016;19.954;2023-05-15T01:45:04;98090.66;;;14.50
75811;BMP280;64449;50.016;19.954;2023-05-15T01:47:37;98080.19;;;14.49
75811;BMP280;64449;50.016;19.954;2023-05-15T01:50:04;98075.15;;;14.48
75811;BMP280;64449;50.016;19.954;2023-05-15T01:52:37;98072.52;;;14.48
75811;BMP280;64449;50.016;19.954;2023-05-15T01:55:05;98072.45;;;14.48
75811;BMP280;64449;50.016;19.954;2023-05-15T01:57:32;98072.56;;;14.49
75811;BMP280;64449;50.016;19.954;2023-05-15T01:59:59;98068.30;;;14.50
75811;BMP280;64449;50.016;19.954;2023-05-15T02:02:26;98066.00;;;14.51
75811;BMP280;64449;50.016;19.954;2023-05-15T02:04:53;98063.30;;;14.51
75811;BMP280;64449;50.016;19.954;2023-05-15T02:07:20;98058.48;;;14.51
75811;BMP280;64449;50.016;19.954;2023-05-15T02:09:47;98053.45;;;14.52
75811;BMP280;64449;50.016;19.954;2023-05-15T02:12:14;98048.27;;;14.51
75811;BMP280;64449;50.016;19.954;2023-05-15T02:14:40;98046.82;;;14.52
75811;BMP280;64449;50.016;19.954;2023-05-15T02:17:07;98041.39;;;14.51
75811;BMP280;64449;50.016;19.954;2023-05-15T02:19:32;98040.73;;;14.49
75811;BMP280;64449;50.016;19.954;2023-05-15T02:21:58;98035.30;;;14.49
75811;BMP280;64449;50.016;19.954;2023-05-15T02:24:23;98029.47;;;14.50
75811;BMP280;64449;50.016;19.954;2023-05-15T02:35:08;98005.19;;;14.51
75811;BMP280;64449;50.016;19.954;2023-05-15T02:37:38;98004.92;;;14.52
75811;BMP280;64449;50.016;19.954;2023-05-15T02:40:07;98002.20;;;14.53
75811;BMP280;64449;50.016;19.954;2023-05-15T02:42:35;98000.00;;;14.52
75811;BMP280;64449;50.016;19.954;2023-05-15T02:45:01;98002.28;;;14.52
75811;BMP280;64449;50.016;19.954;2023-05-15T02:47:27;97999.77;;;14.52
75811;BMP280;64449;50.016;19.954;2023-05-15T02:49:53;98001.45;;;14.53
75811;BMP280;64449;50.016;19.954;2023-05-15T02:52:19;98002.64;;;14.54
75811;BMP280;64449;50.016;19.954;2023-05-15T02:54:46;98004.67;;;14.55
75811;BMP280;64449;50.016;19.954;2023-05-15T02:57:12;98002.59;;;14.55
75811;BMP280;64449;50.016;19.954;2023-05-15T02:59:37;98002.64;;;14.55
75811;BMP280;64449;50.016;19.954;2023-05-15T03:02:03;98004.38;;;14.55
75811;BMP280;64449;50.016;19.954;2023-05-15T03:04:29;98003.20;;;14.53
75811;BMP280;64449;50.016;19.954;2023-05-15T03:06:55;97997.30;;;14.54
75811;BMP280;64449;50.016;19.954;2023-05-15T03:09:20;97992.80;;;14.52
75811;BMP280;64449;50.016;19.954;2023-05-15T03:11:45;97989.51;;;14.54
75811;BMP280;64449;50.016;19.954;2023-05-15T03:14:11;97987.48;;;14.55
75811;BMP280;64449;50.016;19.954;2023-05-15T03:16:36;97990.16;;;14.57
75811;BMP280;64449;50.016;19.954;2023-05-15T03:19:03;97989.80;;;14.59
75811;BMP280;64449;50.016;19.954;2023-05-15T03:21:29;97990.02;;;14.58
75811;BMP280;64449;50.016;19.954;2023-05-15T03:23:55;97987.27;;;14.58
75811;BMP280;64449;50.016;19.954;2023-05-15T03:26:20;97988.61;;;14.59
75811;BMP280;64449;50.016;19.954;2023-05-15T03:28:46;97990.45;;;14.60
75811;BMP280;64449;50.016;19.954;2023-05-15T03:31:11;97990.08;;;14.60
75811;BMP280;64449;50.016;19.954;2023-05-15T03:33:38;97993.79;;;14.61
75811;BMP280;64449;50.016;19.954;2023-05-15T03:36:05;97993.00;;;14.61
75811;BMP280;64449;50.016;19.954;2023-05-15T03:38:31;97991.67;;;14.61
75811;BMP280;64449;50.016;19.954;2023-05-15T03:40:56;97987.44;;;14.61
75811;BMP280;64449;50.016;19.954;2023-05-15T03:43:22;97986.08;;;14.62
75811;BMP280;64449;50.016;19.954;2023-05-15T03:45:48;97985.45;;;14.64
75811;BMP280;64449;50.016;19.954;2023-05-15T03:48:13;97980.26;;;14.66
75811;BMP280;64449;50.016;19.954;2023-05-15T03:50:39;97980.23;;;14.69
75811;BMP280;64449;50.016;19.954;2023-05-15T03:53:04;97977.08;;;14.71
75811;BMP280;64449;50.016;19.954;2023-05-15T03:55:30;97973.41;;;14.73
75811;BMP280;64449;50.016;19.954;2023-05-15T03:57:56;97971.34;;;14.75
75811;BMP280;64449;50.016;19.954;2023-05-15T04:00:21;97962.52;;;14.78
75811;BMP280;64449;50.016;19.954;2023-05-15T04:02:48;97960.96;;;14.80
75811;BMP280;64449;50.016;19.954;2023-05-15T04:05:13;97958.17;;;14.83
75811;BMP280;64449;50.016;19.954;2023-05-15T04:07:39;97959.19;;;14.86
75811;BMP280;64449;50.016;19.954;2023-05-15T04:10:05;97956.00;;;14.89
75811;BMP280;64449;50.016;19.954;2023-05-15T04:12:32;97955.34;;;14.93
75811;BMP280;64449;50.016;19.954;2023-05-15T04:15:21;97955.80;;;14.96
75811;BMP280;64449;50.016;19.954;2023-05-15T04:17:49;97955.90;;;15.01
75811;BMP280;64449;50.016;19.954;2023-05-15T04:20:18;97952.33;;;15.04
75811;BMP280;64449;50.016;19.954;2023-05-15T04:22:44;97952.14;;;15.07
75811;BMP280;64449;50.016;19.954;2023-05-15T04:25:11;97949.18;;;15.10
75811;BMP280;64449;50.016;19.954;2023-05-15T04:27:38;97937.08;;;15.12
75811;BMP280;64449;50.016;19.954;2023-05-15T04:30:04;97930.43;;;15.13
75811;BMP280;64449;50.016;19.954;2023-05-15T04:32:30;97931.60;;;15.13
75811;BMP280;64449;50.016;19.954;2023-05-15T04:35:01;97925.07;;;15.13
75811;BMP280;64449;50.016;19.954;2023-05-15T04:37:27;97913.23;;;15.13
75811;BMP280;64449;50.016;19.954;2023-05-15T04:39:53;97910.36;;;15.13
75811;BMP280;64449;50.016;19.954;2023-05-15T04:42:19;97906.27;;;15.15
75811;BMP280;64449;50.016;19.954;2023-05-15T04:44:44;97902.25;;;15.15
75811;BMP280;64449;50.016;19.954;2023-05-15T04:47:10;97900.65;;;15.16
75811;BMP280;64449;50.016;19.954;2023-05-15T04:49:36;97901.83;;;15.19
75811;BMP280;64449;50.016;19.954;2023-05-15T04:52:01;97907.86;;;15.22
75811;BMP280;64449;50.016;19.954;2023-05-15T04:54:26;97911.26;;;15.25
75811;BMP280;64449;50.016;19.954;2023-05-15T04:56:52;97913.14;;;15.29
75811;BMP280;64449;50.016;19.954;2023-05-15T04:59:17;97912.10;;;15.29
75811;BMP280;64449;50.016;19.954;2023-05-15T05:01:44;97912.10;;;15.31
75811;BMP280;64449;50.016;19.954;2023-05-15T05:04:09;97912.89;;;15.34
75811;BMP280;64449;50.016;19.954;2023-05-15T05:06:34;97911.77;;;15.39
75811;BMP280;64449;50.016;19.954;2023-05-15T05:09:00;97912.05;;;15.46
75811;BMP280;64449;50.016;19.954;2023-05-15T05:11:25;97907.29;;;15.54
75811;BMP280;64449;50.016;19.954;2023-05-15T05:13:51;97912.27;;;15.63
75811;BMP280;64449;50.016;19.954;2023-05-15T05:16:16;97919.13;;;15.72
75811;BMP280;64449;50.016;19.954;2023-05-15T05:18:41;97924.84;;;15.76
75811;BMP280;64449;50.016;19.954;2023-05-15T05:21:07;97913.59;;;15.78
75811;BMP280;64449;50.016;19.954;2023-05-15T05:23:32;97906.23;;;15.82
75811;BMP280;64449;50.016;19.954;2023-05-15T05:25:58;97903.60;;;15.82
75811;BMP280;64449;50.016;19.954;2023-05-15T05:28:24;97900.33;;;15.82
75811;BMP280;64449;50.016;19.954;2023-05-15T05:30:50;97906.65;;;15.84
75811;BMP280;64449;50.016;19.954;2023-05-15T05:33:15;97909.23;;;15.85
75811;BMP280;64449;50.016;19.954;2023-05-15T05:35:41;97914.89;;;15.83
75811;BMP280;64449;50.016;19.954;2023-05-15T05:38:07;97917.90;;;15.81
75811;BMP280;64449;50.016;19.954;2023-05-15T05:40:32;97917.94;;;15.77
75811;BMP280;64449;50.016;19.954;2023-05-15T05:43:01;97920.08;;;15.75
75811;BMP280;64449;50.016;19.954;2023-05-15T05:45:27;97917.24;;;15.71
75811;BMP280;64449;50.016;19.954;2023-05-15T05:47:55;97915.44;;;15.68
75811;BMP280;64449;50.016;19.954;2023-05-15T05:50:21;97916.73;;;15.64
75811;BMP280;64449;50.016;19.954;2023-05-15T05:52:47;97922.36;;;15.61
75811;BMP280;64449;50.016;19.954;2023-05-15T05:55:13;97920.87;;;15.59
75811;BMP280;64449;50.016;19.954;2023-05-15T05:57:38;97912.06;;;15.55
75811;BMP280;64449;50.016;19.954;2023-05-15T06:00:05;97902.84;;;15.54
75811;BMP280;64449;50.016;19.954;2023-05-15T06:02:33;97892.14;;;15.54
75811;BMP280;64449;50.016;19.954;2023-05-15T06:04:58;97886.39;;;15.54
75811;BMP280;64449;50.016;19.954;2023-05-15T06:07:23;97893.21;;;15.54
75811;BMP280;64449;50.016;19.954;2023-05-15T06:09:49;97895.15;;;15.54
75811;BMP280;64449;50.016;19.954;2023-05-15T06:12:14;97884.46;;;15.55
75811;BMP280;64449;50.016;19.954;2023-05-15T06:14:40;97874.75;;;15.56
75811;BMP280;64449;50.016;19.954;2023-05-15T06:17:05;97860.44;;;15.57
75811;BMP280;64449;50.016;19.954;2023-05-15T06:19:31;97846.36;;;15.60
75811;BMP280;64449;50.016;19.954;2023-05-15T06:21:56;97843.06;;;15.63
75811;BMP280;64449;50.016;19.954;2023-05-15T06:24:22;97844.69;;;15.67
75811;BMP280;64449;50.016;19.954;2023-05-15T06:26:47;97851.98;;;15.72
75811;BMP280;64449;50.016;19.954;2023-05-15T06:29:13;97852.29;;;15.75
75811;BMP280;64449;50.016;19.954;2023-05-15T06:31:38;97846.45;;;15.79
75811;BMP280;64449;50.016;19.954;2023-05-15T06:34:03;97840.45;;;15.86
75811;BMP280;64449;50.016;19.954;2023-05-15T06:36:29;97842.11;;;15.94
75811;BMP280;64449;50.016;19.954;2023-05-15T06:38:54;97848.23;;;16.02
75811;BMP280;64449;50.016;19.954;2023-05-15T06:41:20;97846.65;;;16.08
75811;BMP280;64449;50.016;19.954;2023-05-15T06:43:45;97840.56;;;16.13
75811;BMP280;64449;50.016;19.954;2023-05-15T06:46:11;97835.70;;;16.20
75811;BMP280;64449;50.016;19.954;2023-05-15T06:48:36;97835.58;;;16.30
75811;BMP280;64449;50.016;19.954;2023-05-15T06:51:02;97834.89;;;16.38
75811;BMP280;64449;50.016;19.954;2023-05-15T06:53:28;97836.35;;;16.44
75811;BMP280;64449;50.016;19.954;2023-05-15T06:55:54;97836.64;;;16.50
75811;BMP280;64449;50.016;19.954;2023-05-15T06:58:19;97840.08;;;16.56
75811;BMP280;64449;50.016;19.954;2023-05-15T07:00:45;97844.11;;;16.63
75811;BMP280;64449;50.016;19.954;2023-05-15T07:03:10;97841.95;;;16.70
75811;BMP280;64449;50.016;19.954;2023-05-15T07:05:38;97843.38;;;16.80
75811;BMP280;64449;50.016;19.954;2023-05-15T07:08:04;97840.88;;;16.91
75811;BMP280;64449;50.016;19.954;2023-05-15T07:10:30;97839.42;;;17.03
75811;BMP280;64449;50.016;19.954;2023-05-15T07:12:55;97838.61;;;17.13
75811;BMP280;64449;50.016;19.954;2023-05-15T07:15:20;97840.73;;;17.22
75811;BMP280;64449;50.016;19.954;2023-05-15T07:17:46;97835.41;;;17.33
75811;BMP280;64449;50.016;19.954;2023-05-15T07:20:11;97838.36;;;17.43
75811;BMP280;64449;50.016;19.954;2023-05-15T07:22:37;97843.95;;;17.56
75811;BMP280;64449;50.016;19.954;2023-05-15T07:25:03;97838.06;;;17.67
75811;BMP280;64449;50.016;19.954;2023-05-15T07:27:29;97840.73;;;17.79
75811;BMP280;64449;50.016;19.954;2023-05-15T07:29:54;97843.64;;;17.94
75811;BMP280;64449;50.016;19.954;2023-05-15T07:32:19;97840.80;;;18.12
75811;BMP280;64449;50.016;19.954;2023-05-15T07:34:45;97841.30;;;18.30
75811;BMP280;64449;50.016;19.954;2023-05-15T07:37:10;97847.70;;;18.49
75811;BMP280;64449;50.016;19.954;2023-05-15T07:39:36;97847.87;;;18.63
75811;BMP280;64449;50.016;19.954;2023-05-15T07:42:01;97848.08;;;18.75
75811;BMP280;64449;50.016;19.954;2023-05-15T07:44:27;97853.06;;;18.85
75811;BMP280;64449;50.016;19.954;2023-05-15T07:46:54;97853.85;;;18.92
75811;BMP280;64449;50.016;19.954;2023-05-15T07:49:20;97853.53;;;18.95
75811;BMP280;64449;50.016;19.954;2023-05-15T07:51:45;97851.47;;;18.95
75811;BMP280;64449;50.016;19.954;2023-05-15T07:54:10;97849.01;;;18.94
75811;BMP280;64449;50.016;19.954;2023-05-15T07:56:36;97842.90;;;18.91
75811;BMP280;64449;50.016;19.954;2023-05-15T07:59:02;97844.16;;;18.90
75811;BMP280;64449;50.016;19.954;2023-05-15T08:01:27;97843.20;;;18.89
75811;BMP280;64449;50.016;19.954;2023-05-15T08:03:53;97849.46;;;18.86
75811;BMP280;64449;50.016;19.954;2023-05-15T08:06:18;97854.87;;;18.88
75811;BMP280;64449;50.016;19.954;2023-05-15T08:08:43;97860.73;;;18.90
75811;BMP280;64449;50.016;19.954;2023-05-15T08:11:09;97865.99;;;18.91
75811;BMP280;64449;50.016;19.954;2023-05-15T08:13:34;97867.29;;;18.97
75811;BMP280;64449;50.016;19.954;2023-05-15T08:15:59;97868.82;;;19.06
75811;BMP280;64449;50.016;19.954;2023-05-15T08:18:25;97870.00;;;19.16
75811;BMP280;64449;50.016;19.954;2023-05-15T08:20:50;97866.85;;;19.25
75811;BMP280;64449;50.016;19.954;2023-05-15T08:23:16;97865.59;;;19.31
75811;BMP280;64449;50.016;19.954;2023-05-15T08:25:42;97861.02;;;19.40
75811;BMP280;64449;50.016;19.954;2023-05-15T08:28:07;97860.73;;;19.47
75811;BMP280;64449;50.016;19.954;2023-05-15T08:30:32;97862.71;;;19.52
75811;BMP280;64449;50.016;19.954;2023-05-15T08:32:58;97861.93;;;19.57
75811;BMP280;64449;50.016;19.954;2023-05-15T08:35:23;97863.59;;;19.64
75811;BMP280;64449;50.016;19.954;2023-05-15T08:37:49;97862.87;;;19.71
75811;BMP280;64449;50.016;19.954;2023-05-15T08:40:14;97866.45;;;19.77
75811;BMP280;64449;50.016;19.954;2023-05-15T08:42:47;97872.10;;;19.82
75811;BMP280;64449;50.016;19.954;2023-05-15T08:45:14;97873.56;;;19.87
75811;BMP280;64449;50.016;19.954;2023-05-15T08:47:40;97871.75;;;19.91
75811;BMP280;64449;50.016;19.954;2023-05-15T08:50:14;97867.52;;;19.93
75811;BMP280;64449;50.016;19.954;2023-05-15T08:52:40;97869.65;;;19.96
75811;BMP280;64449;50.016;19.954;2023-05-15T08:55:08;97869.85;;;19.98
75811;BMP280;64449;50.016;19.954;2023-05-15T08:57:33;97872.38;;;20.00
75811;BMP280;64449;50.016;19.954;2023-05-15T09:00:02;97865.23;;;20.01
75811;BMP280;64449;50.016;19.954;2023-05-15T09:02:30;97867.25;;;20.03
75811;BMP280;64449;50.016;19.954;2023-05-15T09:04:55;97878.27;;;20.04
75811;BMP280;64449;50.016;19.954;2023-05-15T09:07:21;97882.11;;;20.03
75811;BMP280;64449;50.016;19.954;2023-05-15T09:09:47;97891.58;;;20.03
75811;BMP280;64449;50.016;19.954;2023-05-15T09:12:14;97890.59;;;20.02
75811;BMP280;64449;50.016;19.954;2023-05-15T09:14:41;97889.77;;;20.00
75811;BMP280;64449;50.016;19.954;2023-05-15T09:17:10;97888.68;;;19.99
75811;BMP280;64449;50.016;19.954;2023-05-15T09:19:37;97882.98;;;20.01
75811;BMP280;64449;50.016;19.954;2023-05-15T09:22:18;97881.98;;;20.03
75811;BMP280;64449;50.016;19.954;2023-05-15T09:24:47;97879.99;;;20.04
75811;BMP280;64449;50.016;19.954;2023-05-15T09:27:16;97879.94;;;20.02
75811;BMP280;64449;50.016;19.954;2023-05-15T09:29:41;97875.77;;;20.05
75811;BMP280;64449;50.016;19.954;2023-05-15T09:32:09;97874.92;;;20.11
75811;BMP280;64449;50.016;19.954;2023-05-15T09:34:36;97877.69;;;20.15
75811;BMP280;64449;50.016;19.954;2023-05-15T09:37:03;97876.72;;;20.19
75811;BMP280;64449;50.016;19.954;2023-05-15T09:39:29;97879.36;;;20.21
75811;BMP280;64449;50.016;19.954;2023-05-15T09:42:14;97884.32;;;20.22
75811;BMP280;64449;50.016;19.954;2023-05-15T09:44:43;97889.80;;;20.25
75811;BMP280;64449;50.016;19.954;2023-05-15T09:47:11;97901.65;;;20.21
75811;BMP280;64449;50.016;19.954;2023-05-15T09:49:37;97907.71;;;20.19
75811;BMP280;64449;50.016;19.954;2023-05-15T09:52:06;97909.73;;;20.18
75811;BMP280;64449;50.016;19.954;2023-05-15T09:54:34;97908.39;;;20.19
75811;BMP280;64449;50.016;19.954;2023-05-15T09:57:11;97901.33;;;20.21
75811;BMP280;64449;50.016;19.954;2023-05-15T09:59:47;97891.67;;;20.25
75811;BMP280;64449;50.016;19.954;2023-05-15T10:02:26;97882.65;;;20.27
75811;BMP280;64449;50.016;19.954;2023-05-15T10:04:56;97880.77;;;20.29
75811;BMP280;64449;50.016;19.954;2023-05-15T10:09:53;97887.54;;;20.25
75811;BMP280;64449;50.016;19.954;2023-05-15T10:12:19;97883.16;;;20.22
75811;BMP280;64449;50.016;19.954;2023-05-15T10:14:47;97878.62;;;20.23
75811;BMP280;64449;50.016;19.954;2023-05-15T10:17:13;97879.48;;;20.25
75811;BMP280;64449;50.016;19.954;2023-05-15T10:19:39;97881.33;;;20.25
75811;BMP280;64449;50.016;19.954;2023-05-15T10:22:07;97887.27;;;20.26
75811;BMP280;64449;50.016;19.954;2023-05-15T10:24:35;97893.67;;;20.27
75811;BMP280;64449;50.016;19.954;2023-05-15T10:27:02;97894.21;;;20.28
75811;BMP280;64449;50.016;19.954;2023-05-15T10:29:28;97892.83;;;20.29
75811;BMP280;64449;50.016;19.954;2023-05-15T10:31:54;97887.95;;;20.31
75811;BMP280;64449;50.016;19.954;2023-05-15T10:34:20;97889.03;;;20.31
75811;BMP280;64449;50.016;19.954;2023-05-15T10:36:48;97896.44;;;20.31
75811;BMP280;64449;50.016;19.954;2023-05-15T10:39:14;97899.93;;;20.31
75811;BMP280;64449;50.016;19.954;2023-05-15T10:41:41;97907.21;;;20.28
75811;BMP280;64449;50.016;19.954;2023-05-15T10:44:08;97914.67;;;20.25
75811;BMP280;64449;50.016;19.954;2023-05-15T10:46:35;97916.45;;;20.19
75811;BMP280;64449;50.016;19.954;2023-05-15T10:49:01;97913.09;;;20.16
75811;BMP280;64449;50.016;19.954;2023-05-15T10:51:28;97910.77;;;20.13
75811;BMP280;64449;50.016;19.954;2023-05-15T10:53:55;97911.55;;;20.11
75811;BMP280;64449;50.016;19.954;2023-05-15T10:56:27;97911.02;;;20.09
75811;BMP280;64449;50.016;19.954;2023-05-15T10:58:54;97915.67;;;20.06
75811;BMP280;64449;50.016;19.954;2023-05-15T11:01:30;97917.23;;;20.01
75811;BMP280;64449;50.016;19.954;2023-05-15T11:06:32;97906.61;;;20.00
75811;BMP280;64449;50.016;19.954;2023-05-15T11:19:33;97893.55;;;20.04
75811;BMP280;64449;50.016;19.954;2023-05-15T11:25:10;97895.17;;;20.06
75811;BMP280;64449;50.016;19.954;2023-05-15T11:27:45;97891.87;;;20.05
75811;BMP280;64449;50.016;19.954;2023-05-15T11:30:18;97890.31;;;20.05
75811;BMP280;64449;50.016;19.954;2023-05-15T11:33:03;97888.48;;;20.06
75811;BMP280;64449;50.016;19.954;2023-05-15T11:35:40;97892.35;;;20.06
75811;BMP280;64449;50.016;19.954;2023-05-15T11:38:11;97892.05;;;20.09
75811;BMP280;64449;50.016;19.954;2023-05-15T11:43:31;97883.34;;;20.22
75811;BMP280;64449;50.016;19.954;2023-05-15T11:48:32;97878.49;;;20.41
75811;BMP280;64449;50.016;19.954;2023-05-15T11:50:59;97878.58;;;20.53
75811;BMP280;64449;50.016;19.954;2023-05-15T11:53:25;97884.14;;;20.66
75811;BMP280;64449;50.016;19.954;2023-05-15T11:55:52;97885.09;;;20.83
75811;BMP280;64449;50.016;19.954;2023-05-15T11:58:20;97883.06;;;21.10
75811;BMP280;64449;50.016;19.954;2023-05-15T12:00:47;97882.96;;;21.60
75811;BMP280;64449;50.016;19.954;2023-05-15T12:03:32;97876.41;;;22.06
75811;BMP280;64449;50.016;19.954;2023-05-15T12:06:00;97874.96;;;22.30
75811;BMP280;64449;50.016;19.954;2023-05-15T12:08:34;97869.16;;;22.59
75811;BMP280;64449;50.016;19.954;2023-05-15T12:11:02;97860.14;;;22.92
75811;BMP280;64449;50.016;19.954;2023-05-15T12:13:29;97859.84;;;23.17
75811;BMP280;64449;50.016;19.954;2023-05-15T12:15:55;97863.50;;;23.44
75811;BMP280;64449;50.016;19.954;2023-05-15T12:18:21;97854.52;;;23.57
75811;BMP280;64449;50.016;19.954;2023-05-15T12:20:47;97854.80;;;23.81
75811;BMP280;64449;50.016;19.954;2023-05-15T12:23:15;97855.88;;;24.10
75811;BMP280;64449;50.016;19.954;2023-05-15T12:25:42;97848.48;;;24.35
75811;BMP280;64449;50.016;19.954;2023-05-15T12:28:09;97843.10;;;24.74
75811;BMP280;64449;50.016;19.954;2023-05-15T12:30:35;97841.18;;;25.07
75811;BMP280;64449;50.016;19.954;2023-05-15T12:33:03;97843.65;;;25.29
75811;BMP280;64449;50.016;19.954;2023-05-15T12:35:32;97846.78;;;25.35
75811;BMP280;64449;50.016;19.954;2023-05-15T12:37:59;97843.38;;;25.30
75811;BMP280;64449;50.016;19.954;2023-05-15T12:40:25;97845.99;;;25.23
75811;BMP280;64449;50.016;19.954;2023-05-15T12:42:52;97843.73;;;25.22
75811;BMP280;64449;50.016;19.954;2023-05-15T12:45:19;97842.20;;;25.23
75811;BMP280;64449;50.016;19.954;2023-05-15T12:47:48;97835.58;;;25.21
75811;BMP280;64449;50.016;19.954;2023-05-15T12:50:17;97826.17;;;25.23
75811;BMP280;64449;50.016;19.954;2023-05-15T12:55:16;97822.48;;;25.15
75811;BMP280;64449;50.016;19.954;2023-05-15T12:57:42;97820.48;;;25.07
75811;BMP280;64449;50.016;19.954;2023-05-15T13:00:10;97819.86;;;25.09
75811;BMP280;64449;50.016;19.954;2023-05-15T13:02:37;97822.83;;;25.13
75811;BMP280;64449;50.016;19.954;2023-05-15T13:05:03;97824.03;;;25.04
75811;BMP280;64449;50.016;19.954;2023-05-15T13:07:29;97815.72;;;24.87
75811;BMP280;64449;50.016;19.954;2023-05-15T13:10:04;97813.31;;;24.73
75811;BMP280;64449;50.016;19.954;2023-05-15T13:12:35;97813.67;;;24.57
75811;BMP280;64449;50.016;19.954;2023-05-15T13:15:01;97805.10;;;24.37
75811;BMP280;64449;50.016;19.954;2023-05-15T13:17:29;97803.86;;;24.10
75811;BMP280;64449;50.016;19.954;2023-05-15T13:19:54;97806.45;;;23.82
75811;BMP280;64449;50.016;19.954;2023-05-15T13:22:20;97799.36;;;23.59
75811;BMP280;64449;50.016;19.954;2023-05-15T13:24:45;97806.68;;;23.31
75811;BMP280;64449;50.016;19.954;2023-05-15T13:27:10;97809.81;;;23.06
75811;BMP280;64449;50.016;19.954;2023-05-15T13:29:36;97810.32;;;22.82
75811;BMP280;64449;50.016;19.954;2023-05-15T13:32:01;97816.34;;;22.62
75811;BMP280;64449;50.016;19.954;2023-05-15T13:34:27;97821.98;;;22.43
75811;BMP280;64449;50.016;19.954;2023-05-15T13:36:52;97824.06;;;22.28
75811;BMP280;64449;50.016;19.954;2023-05-15T13:39:18;97826.95;;;22.10
75811;BMP280;64449;50.016;19.954;2023-05-15T13:41:43;97839.65;;;21.93
75811;BMP280;64449;50.016;19.954;2023-05-15T13:44:08;97845.07;;;21.77
75811;BMP280;64449;50.016;19.954;2023-05-15T13:46:34;97835.48;;;21.60
75811;BMP280;64449;50.016;19.954;2023-05-15T13:48:59;97824.52;;;21.41
75811;BMP280;64449;50.016;19.954;2023-05-15T13:51:25;97826.00;;;21.23
75811;BMP280;64449;50.016;19.954;2023-05-15T13:53:50;97836.86;;;21.07
75811;BMP280;64449;50.016;19.954;2023-05-15T13:56:16;97850.62;;;20.92
75811;BMP280;64449;50.016;19.954;2023-05-15T13:58:41;97860.13;;;20.79
75811;BMP280;64449;50.016;19.954;2023-05-15T14:01:07;97855.80;;;20.69
75811;BMP280;64449;50.016;19.954;2023-05-15T14:03:32;97862.64;;;20.63
75811;BMP280;64449;50.016;19.954;2023-05-15T14:05:58;97872.80;;;20.61
75811;BMP280;64449;50.016;19.954;2023-05-15T14:08:24;97862.90;;;20.66
75811;BMP280;64449;50.016;19.954;2023-05-15T14:10:49;97858.59;;;20.75
75811;BMP280;64449;50.016;19.954;2023-05-15T14:13:15;97860.84;;;20.98
75811;BMP280;64449;50.016;19.954;2023-05-15T14:15:40;97859.96;;;21.20
75811;BMP280;64449;50.016;19.954;2023-05-15T14:18:06;97871.80;;;21.31
75811;BMP280;64449;50.016;19.954;2023-05-15T14:20:31;97885.52;;;21.41
75811;BMP280;64449;50.016;19.954;2023-05-15T14:22:57;97880.20;;;21.64
75811;BMP280;64449;50.016;19.954;2023-05-15T14:25:22;97865.83;;;21.86
75811;BMP280;64449;50.016;19.954;2023-05-15T14:27:48;97864.16;;;22.02
75811;BMP280;64449;50.016;19.954;2023-05-15T14:30:14;97856.47;;;22.17
75811;BMP280;64449;50.016;19.954;2023-05-15T14:32:39;97851.44;;;22.25
75811;BMP280;64449;50.016;19.954;2023-05-15T14:35:05;97851.44;;;22.32
75811;BMP280;64449;50.016;19.954;2023-05-15T14:37:31;97851.50;;;22.40
75811;BMP280;64449;50.016;19.954;2023-05-15T14:39:57;97852.98;;;22.40